createdAt,value
2018-07-09T00:00:20.879Z,0.00
2018-07-09T00:01:20.866Z,0.00
2018-07-09T00:02:20.852Z,0.00
2018-07-09T00:03:20.855Z,0.00
2018-07-09T00:04:20.845Z,0.00
2018-07-09T00:05:20.825Z,0.00
2018-07-09T00:06:20.855Z,0.00
2018-07-09T00:07:20.795Z,0.00
2018-07-09T00:08:20.801Z,0.00
2018-07-09T00:09:20.786Z,0.00
2018-07-09T00:10:20.769Z,0.00
2018-07-09T00:11:20.752Z,0.00
2018-07-09T00:12:20.744Z,0.00
2018-07-09T00:13:20.746Z,0.00
2018-07-09T00:14:20.728Z,0.00
2018-07-09T00:15:20.721Z,0.00
2018-07-09T00:16:20.719Z,0.00
2018-07-09T00:17:20.698Z,0.00
2018-07-09T00:18:20.686Z,0.00
2018-07-09T00:19:20.687Z,0.00
2018-07-09T00:20:20.676Z,0.00
2018-07-09T00:21:20.656Z,0.00
2018-07-09T00:22:20.633Z,0.00
2018-07-09T00:23:20.629Z,0.00
2018-07-09T00:24:20.646Z,0.00
2018-07-09T00:25:20.603Z,0.00
2018-07-09T00:26:20.590Z,0.00
2018-07-09T00:27:20.587Z,0.00
2018-07-09T00:28:20.575Z,0.00
2018-07-09T00:29:20.566Z,0.00
2018-07-09T00:30:20.557Z,0.00
2018-07-09T00:31:20.535Z,0.00
2018-07-09T00:32:20.605Z,0.00
2018-07-09T00:33:20.529Z,0.00
2018-07-09T00:34:20.509Z,0.00
2018-07-09T00:35:20.505Z,0.00
2018-07-09T00:36:20.486Z,0.00
2018-07-09T00:37:20.476Z,0.00
2018-07-09T00:38:20.496Z,0.00
2018-07-09T00:39:20.452Z,0.00
2018-07-09T00:40:20.448Z,0.00
2018-07-09T00:41:20.444Z,0.00
2018-07-09T00:42:20.424Z,0.00
2018-07-09T00:43:20.410Z,0.00
2018-07-09T00:44:20.397Z,0.00
2018-07-09T00:45:20.391Z,0.00
2018-07-09T00:46:20.377Z,0.00
2018-07-09T00:47:20.384Z,0.00
2018-07-09T00:48:20.384Z,0.00
2018-07-09T00:49:20.378Z,0.00
2018-07-09T00:50:20.374Z,0.00
2018-07-09T00:51:20.348Z,0.00
2018-07-09T00:52:20.353Z,0.00
2018-07-09T00:53:20.334Z,0.00
2018-07-09T00:54:20.346Z,0.00
2018-07-09T00:55:20.373Z,0.00
2018-07-09T00:56:20.299Z,0.00
2018-07-09T00:57:20.282Z,0.00
2018-07-09T00:58:20.254Z,0.00
2018-07-09T00:59:20.254Z,0.00
2018-07-09T01:00:20.240Z,0.00
2018-07-09T01:01:20.224Z,0.00
2018-07-09T01:02:20.210Z,0.00
2018-07-09T01:03:20.192Z,0.00
2018-07-09T01:04:20.184Z,0.00
2018-07-09T01:05:20.173Z,0.00
2018-07-09T01:06:20.165Z,0.00
2018-07-09T01:07:20.177Z,0.00
2018-07-09T01:08:20.141Z,0.00
2018-07-09T01:09:20.132Z,0.00
2018-07-09T01:10:20.123Z,0.00
2018-07-09T01:11:20.135Z,0.00
2018-07-09T01:12:20.098Z,0.00
2018-07-09T01:13:20.090Z,0.00
2018-07-09T01:14:20.081Z,0.00
2018-07-09T01:15:20.064Z,0.00
2018-07-09T01:16:20.058Z,0.00
2018-07-09T01:17:20.046Z,0.00
2018-07-09T01:18:20.038Z,0.00
2018-07-09T01:19:20.047Z,0.00
2018-07-09T01:20:20.035Z,0.00
2018-07-09T01:21:20.000Z,0.00
2018-07-09T01:22:19.992Z,0.00
2018-07-09T01:23:19.990Z,0.00
2018-07-09T01:24:19.977Z,0.00
2018-07-09T01:25:19.965Z,0.00
2018-07-09T01:26:19.951Z,0.00
2018-07-09T01:27:19.951Z,0.00
2018-07-09T01:28:19.923Z,0.00
2018-07-09T01:29:19.920Z,0.00
2018-07-09T01:30:19.907Z,0.00
2018-07-09T01:31:19.894Z,0.00
2018-07-09T01:32:19.910Z,0.00
2018-07-09T01:33:19.871Z,0.00
2018-07-09T01:34:19.871Z,0.00
2018-07-09T01:35:19.853Z,0.00
2018-07-09T01:36:19.845Z,0.00
2018-07-09T01:37:19.835Z,0.00
2018-07-09T01:38:19.827Z,0.00
2018-07-09T01:39:19.809Z,0.00
2018-07-09T01:40:19.801Z,0.00
2018-07-09T01:41:19.791Z,0.00
2018-07-09T01:42:19.779Z,0.00
2018-07-09T01:43:19.774Z,0.00
2018-07-09T01:44:19.759Z,0.00
2018-07-09T01:45:19.759Z,0.00
2018-07-09T01:46:19.734Z,0.00
2018-07-09T01:47:19.727Z,0.00
2018-07-09T01:48:19.717Z,0.00
2018-07-09T01:49:19.707Z,0.00
2018-07-09T01:50:19.692Z,0.00
2018-07-09T01:51:19.678Z,0.00
2018-07-09T01:52:19.666Z,0.00
2018-07-09T01:53:19.657Z,0.00
2018-07-09T01:54:19.647Z,0.00
2018-07-09T01:55:19.640Z,0.00
2018-07-09T01:56:19.657Z,0.00
2018-07-09T01:57:19.636Z,0.00
2018-07-09T01:58:19.612Z,0.00
2018-07-09T01:59:19.592Z,0.00
2018-07-09T02:00:19.579Z,0.00
2018-07-09T02:01:19.576Z,0.00
2018-07-09T02:02:19.563Z,0.00
2018-07-09T02:03:19.572Z,0.00
2018-07-09T02:04:19.549Z,0.00
2018-07-09T02:05:19.528Z,0.00
2018-07-09T02:06:19.518Z,0.00
2018-07-09T02:07:19.509Z,0.00
2018-07-09T02:08:19.529Z,0.00
2018-07-09T02:09:19.489Z,0.00
2018-07-09T02:10:19.484Z,0.00
2018-07-09T02:11:19.463Z,0.00
2018-07-09T02:12:19.452Z,0.00
2018-07-09T02:13:19.438Z,0.00
2018-07-09T02:14:19.433Z,0.00
2018-07-09T02:15:19.421Z,0.00
2018-07-09T02:16:19.423Z,0.00
2018-07-09T02:17:19.404Z,0.00
2018-07-09T02:18:19.390Z,0.00
2018-07-09T02:19:19.397Z,0.00
2018-07-09T02:20:19.369Z,0.00
2018-07-09T02:21:19.359Z,0.00
2018-07-09T02:22:19.347Z,0.00
2018-07-09T02:23:19.334Z,0.00
2018-07-09T02:24:19.349Z,0.00
2018-07-09T02:25:19.314Z,0.00
2018-07-09T02:26:19.300Z,0.00
2018-07-09T02:27:19.291Z,0.00
2018-07-09T02:28:19.284Z,0.00
2018-07-09T02:29:19.272Z,0.00
2018-07-09T02:30:19.269Z,0.00
2018-07-09T02:31:19.246Z,0.00
2018-07-09T02:32:19.232Z,0.00
2018-07-09T02:33:19.228Z,0.00
2018-07-09T02:34:19.217Z,0.00
2018-07-09T02:35:19.206Z,0.00
2018-07-09T02:36:19.191Z,0.00
2018-07-09T02:37:19.180Z,0.00
2018-07-09T02:38:19.172Z,0.00
2018-07-09T02:39:19.162Z,0.00
2018-07-09T02:40:19.184Z,0.00
2018-07-09T02:41:19.145Z,0.00
2018-07-09T02:42:19.133Z,0.00
2018-07-09T02:43:19.123Z,0.00
2018-07-09T02:44:19.104Z,0.00
2018-07-09T02:45:19.094Z,0.00
2018-07-09T02:46:19.087Z,0.00
2018-07-09T02:47:19.077Z,0.00
2018-07-09T02:48:19.070Z,0.00
2018-07-09T02:49:19.214Z,0.00
2018-07-09T02:50:19.060Z,0.00
2018-07-09T02:51:19.038Z,0.00
2018-07-09T02:52:19.026Z,0.00
2018-07-09T02:53:19.014Z,0.00
2018-07-09T02:54:19.003Z,0.00
2018-07-09T02:55:18.989Z,0.00
2018-07-09T02:56:19.005Z,0.00
2018-07-09T02:57:18.965Z,0.00
2018-07-09T02:58:18.957Z,0.00
2018-07-09T02:59:18.947Z,0.00
2018-07-09T03:00:18.940Z,0.00
2018-07-09T03:01:18.961Z,0.00
2018-07-09T03:02:18.923Z,0.00
2018-07-09T03:03:18.902Z,0.00
2018-07-09T03:04:18.889Z,0.00
2018-07-09T03:05:18.884Z,0.00
2018-07-09T03:06:18.877Z,0.00
2018-07-09T03:07:18.879Z,0.00
2018-07-09T03:08:18.894Z,0.00
2018-07-09T03:09:18.887Z,0.00
2018-07-09T03:10:18.828Z,0.00
2018-07-09T03:11:18.819Z,0.00
2018-07-09T03:12:18.812Z,0.00
2018-07-09T03:13:18.807Z,5.62
2018-07-09T03:14:18.789Z,5.62
2018-07-09T03:15:18.770Z,5.62
2018-07-09T03:16:18.762Z,5.62
2018-07-09T03:17:18.770Z,5.62
2018-07-09T03:18:18.758Z,5.62
2018-07-09T03:19:18.738Z,5.62
2018-07-09T03:20:18.725Z,5.62
2018-07-09T03:21:18.708Z,5.62
2018-07-09T03:22:18.724Z,11.25
2018-07-09T03:23:18.693Z,11.25
2018-07-09T03:24:18.678Z,11.25
2018-07-09T03:25:18.667Z,11.25
2018-07-09T03:26:18.660Z,11.25
2018-07-09T03:27:18.642Z,11.25
2018-07-09T03:28:18.634Z,11.25
2018-07-09T03:29:18.623Z,16.88
2018-07-09T03:30:18.610Z,16.88
2018-07-09T03:31:18.608Z,16.88
2018-07-09T03:32:18.593Z,16.88
2018-07-09T03:33:18.586Z,16.88
2018-07-09T03:34:18.575Z,16.88
2018-07-09T03:35:18.561Z,22.50
2018-07-09T03:36:18.553Z,22.50
2018-07-09T03:37:18.571Z,22.50
2018-07-09T03:38:18.566Z,22.50
2018-07-09T03:39:18.514Z,22.50
2018-07-09T03:40:18.504Z,22.50
2018-07-09T03:41:18.493Z,28.12
2018-07-09T03:42:18.485Z,28.12
2018-07-09T03:43:18.502Z,28.12
2018-07-09T03:44:18.464Z,28.12
2018-07-09T03:45:18.461Z,28.12
2018-07-09T03:46:18.456Z,33.75
2018-07-09T03:47:18.465Z,33.75
2018-07-09T03:48:18.466Z,33.75
2018-07-09T03:49:18.407Z,33.75
2018-07-09T03:50:18.394Z,39.38
2018-07-09T03:51:18.390Z,39.38
2018-07-09T03:52:18.377Z,39.38
2018-07-09T03:53:18.414Z,39.38
2018-07-09T03:54:18.351Z,45.00
2018-07-09T03:55:18.352Z,45.00
2018-07-09T03:56:18.334Z,45.00
2018-07-09T03:57:18.324Z,45.00
2018-07-09T03:58:18.316Z,50.62
2018-07-09T03:59:18.302Z,50.62
2018-07-09T04:00:18.288Z,50.62
2018-07-09T04:01:18.280Z,56.25
2018-07-09T04:02:18.355Z,56.25
2018-07-09T04:03:18.262Z,56.25
2018-07-09T04:04:18.268Z,61.88
2018-07-09T04:05:18.237Z,61.88
2018-07-09T04:06:18.228Z,61.88
2018-07-09T04:07:18.212Z,67.50
2018-07-09T04:08:18.203Z,67.50
2018-07-09T04:09:18.224Z,67.50
2018-07-09T04:10:18.186Z,73.12
2018-07-09T04:11:18.169Z,73.12
2018-07-09T04:12:18.162Z,78.75
2018-07-09T04:13:18.149Z,78.75
2018-07-09T04:14:18.136Z,84.38
2018-07-09T04:15:18.134Z,84.38
2018-07-09T04:16:18.119Z,84.38
2018-07-09T04:17:18.109Z,90.00
2018-07-09T04:18:18.099Z,90.00
2018-07-09T04:19:18.085Z,90.00
2018-07-09T04:20:18.122Z,95.62
2018-07-09T04:21:18.062Z,95.62
2018-07-09T04:22:18.050Z,95.62
2018-07-09T04:23:18.051Z,95.62
2018-07-09T04:24:18.040Z,101.25
2018-07-09T04:25:18.025Z,101.25
2018-07-09T04:26:18.047Z,101.25
2018-07-09T04:27:18.006Z,101.25
2018-07-09T04:28:17.991Z,106.88
2018-07-09T04:29:17.980Z,106.88
2018-07-09T04:30:17.992Z,106.88
2018-07-09T04:31:17.961Z,106.88
2018-07-09T04:32:17.968Z,112.50
2018-07-09T04:33:17.957Z,112.50
2018-07-09T04:34:17.928Z,112.50
2018-07-09T04:35:17.917Z,118.12
2018-07-09T04:36:17.924Z,118.12
2018-07-09T04:37:17.891Z,118.12
2018-07-09T04:38:17.883Z,118.12
2018-07-09T04:39:17.868Z,123.75
2018-07-09T04:40:17.858Z,123.75
2018-07-09T04:41:17.888Z,123.75
2018-07-09T04:42:17.842Z,123.75
2018-07-09T04:43:17.882Z,123.75
2018-07-09T04:44:17.814Z,123.75
2018-07-09T04:45:17.804Z,129.38
2018-07-09T04:46:17.813Z,129.38
2018-07-09T04:47:17.811Z,129.38
2018-07-09T04:48:17.783Z,129.38
2018-07-09T04:49:17.763Z,129.38
2018-07-09T04:50:17.755Z,129.38
2018-07-09T04:51:17.737Z,135.00
2018-07-09T04:52:17.747Z,135.00
2018-07-09T04:53:17.718Z,135.00
2018-07-09T04:54:17.705Z,135.00
2018-07-09T04:55:17.705Z,135.00
2018-07-09T04:56:17.687Z,135.00
2018-07-09T04:57:17.702Z,140.62
2018-07-09T04:58:17.674Z,140.62
2018-07-09T04:59:17.659Z,140.62
2018-07-09T05:00:17.644Z,140.62
2018-07-09T05:01:17.639Z,140.62
2018-07-09T05:02:17.662Z,146.25
2018-07-09T05:03:17.630Z,146.25
2018-07-09T05:04:17.602Z,146.25
2018-07-09T05:05:17.588Z,146.25
2018-07-09T05:06:17.575Z,146.25
2018-07-09T05:07:17.572Z,151.88
2018-07-09T05:08:17.582Z,151.88
2018-07-09T05:09:17.547Z,151.88
2018-07-09T05:10:17.541Z,151.88
2018-07-09T05:11:17.528Z,151.88
2018-07-09T05:12:17.512Z,157.50
2018-07-09T05:13:17.504Z,157.50
2018-07-09T05:14:17.508Z,157.50
2018-07-09T05:15:17.477Z,157.50
2018-07-09T05:16:17.469Z,157.50
2018-07-09T05:17:17.458Z,157.50
2018-07-09T05:18:17.445Z,157.50
2018-07-09T05:19:17.459Z,163.12
2018-07-09T05:20:17.446Z,163.12
2018-07-09T05:21:17.417Z,163.12
2018-07-09T05:22:17.409Z,163.12
2018-07-09T05:23:17.393Z,163.12
2018-07-09T05:24:17.384Z,168.75
2018-07-09T05:25:17.379Z,168.75
2018-07-09T05:26:17.419Z,168.75
2018-07-09T05:27:17.355Z,168.75
2018-07-09T05:28:17.343Z,168.75
2018-07-09T05:29:17.370Z,168.75
2018-07-09T05:30:17.318Z,174.38
2018-07-09T05:31:17.312Z,174.38
2018-07-09T05:32:17.299Z,174.38
2018-07-09T05:33:17.346Z,174.38
2018-07-09T05:34:17.280Z,174.38
2018-07-09T05:35:17.265Z,174.38
2018-07-09T05:36:17.257Z,174.38
2018-07-09T05:37:17.247Z,174.38
2018-07-09T05:38:17.232Z,174.38
2018-07-09T05:39:17.255Z,180.00
2018-07-09T05:40:17.220Z,180.00
2018-07-09T05:41:17.203Z,180.00
2018-07-09T05:42:17.196Z,185.62
2018-07-09T05:43:17.200Z,185.62
2018-07-09T05:44:17.167Z,185.62
2018-07-09T05:45:17.162Z,185.62
2018-07-09T05:46:17.169Z,191.25
2018-07-09T05:47:17.134Z,191.25
2018-07-09T05:48:17.128Z,191.25
2018-07-09T05:49:17.118Z,191.25
2018-07-09T05:50:17.113Z,191.25
2018-07-09T05:51:17.103Z,191.25
2018-07-09T05:52:17.084Z,191.25
2018-07-09T05:53:17.075Z,191.25
2018-07-09T05:54:17.063Z,196.88
2018-07-09T05:55:17.049Z,196.88
2018-07-09T05:56:17.036Z,196.88
2018-07-09T05:57:17.033Z,202.50
2018-07-09T05:58:17.012Z,202.50
2018-07-09T05:59:17.008Z,202.50
2018-07-09T06:00:17.021Z,202.50
2018-07-09T06:01:16.983Z,208.12
2018-07-09T06:02:16.975Z,208.12
2018-07-09T06:03:16.967Z,208.12
2018-07-09T06:04:16.977Z,208.12
2018-07-09T06:05:17.004Z,213.75
2018-07-09T06:06:16.954Z,213.75
2018-07-09T06:07:16.914Z,213.75
2018-07-09T06:08:16.906Z,213.75
2018-07-09T06:09:16.895Z,213.75
2018-07-09T06:10:16.885Z,213.75
2018-07-09T06:11:16.980Z,219.38
2018-07-09T06:12:16.866Z,219.38
2018-07-09T06:13:16.873Z,219.38
2018-07-09T06:14:16.846Z,219.38
2018-07-09T06:15:16.833Z,219.38
2018-07-09T06:16:16.825Z,219.38
2018-07-09T06:17:16.813Z,219.38
2018-07-09T06:18:16.809Z,219.38
2018-07-09T06:19:16.837Z,219.38
2018-07-09T06:20:16.782Z,219.38
2018-07-09T06:21:16.768Z,225.00
2018-07-09T06:22:16.764Z,225.00
2018-07-09T06:23:16.749Z,225.00
2018-07-09T06:24:16.736Z,225.00
2018-07-09T06:25:16.761Z,225.00
2018-07-09T06:26:16.757Z,225.00
2018-07-09T06:27:16.699Z,225.00
2018-07-09T06:28:16.691Z,230.62
2018-07-09T06:29:16.680Z,230.62
2018-07-09T06:30:16.667Z,230.62
2018-07-09T06:31:16.663Z,230.62
2018-07-09T06:32:16.654Z,236.25
2018-07-09T06:33:16.638Z,236.25
2018-07-09T06:34:16.625Z,236.25
2018-07-09T06:35:16.640Z,236.25
2018-07-09T06:36:16.609Z,236.25
2018-07-09T06:37:16.605Z,236.25
2018-07-09T06:38:16.589Z,236.25
2018-07-09T06:39:16.570Z,236.25
2018-07-09T06:40:16.578Z,236.25
2018-07-09T06:41:16.558Z,236.25
2018-07-09T06:42:16.539Z,236.25
2018-07-09T06:43:16.537Z,236.25
2018-07-09T06:44:16.522Z,236.25
2018-07-09T06:45:16.511Z,236.25
2018-07-09T06:46:16.513Z,236.25
2018-07-09T06:47:16.505Z,236.25
2018-07-09T06:48:16.546Z,236.25
2018-07-09T06:49:16.467Z,236.25
2018-07-09T06:50:16.478Z,236.25
2018-07-09T06:51:16.465Z,236.25
2018-07-09T06:52:16.485Z,236.25
2018-07-09T06:53:16.422Z,241.88
2018-07-09T06:54:16.412Z,241.88
2018-07-09T06:55:16.403Z,241.88
2018-07-09T06:56:16.391Z,241.88
2018-07-09T06:57:16.404Z,241.88
2018-07-09T06:58:16.370Z,247.50
2018-07-09T06:59:16.354Z,241.88
2018-07-09T07:00:16.365Z,247.50
2018-07-09T07:01:16.361Z,247.50
2018-07-09T07:02:16.348Z,247.50
2018-07-09T07:03:16.318Z,253.12
2018-07-09T07:04:16.304Z,253.12
2018-07-09T07:05:16.291Z,258.75
2018-07-09T07:06:16.283Z,264.38
2018-07-09T07:07:16.276Z,264.38
2018-07-09T07:08:16.263Z,264.38
2018-07-09T07:09:16.258Z,270.00
2018-07-09T07:10:16.243Z,286.88
2018-07-09T07:11:16.225Z,309.38
2018-07-09T07:12:16.216Z,399.38
2018-07-09T07:13:16.233Z,478.12
2018-07-09T07:14:16.292Z,506.25
2018-07-09T07:15:16.188Z,528.75
2018-07-09T07:16:16.174Z,495.00
2018-07-09T07:17:16.165Z,534.38
2018-07-09T07:18:16.176Z,517.50
2018-07-09T07:19:16.145Z,438.75
2018-07-09T07:20:16.130Z,455.62
2018-07-09T07:21:16.122Z,438.75
2018-07-09T07:22:16.115Z,365.62
2018-07-09T07:23:16.113Z,343.12
2018-07-09T07:24:16.087Z,315.00
2018-07-09T07:25:16.077Z,309.38
2018-07-09T07:26:16.074Z,303.75
2018-07-09T07:27:16.058Z,298.12
2018-07-09T07:28:16.070Z,270.00
2018-07-09T07:29:16.029Z,286.88
2018-07-09T07:30:16.021Z,281.25
2018-07-09T07:31:16.030Z,298.12
2018-07-09T07:32:16.011Z,298.12
2018-07-09T07:33:16.097Z,303.75
2018-07-09T07:34:15.988Z,298.12
2018-07-09T07:35:15.965Z,292.50
2018-07-09T07:36:15.959Z,298.12
2018-07-09T07:37:15.950Z,303.75
2018-07-09T07:38:15.972Z,315.00
2018-07-09T07:39:15.987Z,320.62
2018-07-09T07:40:15.941Z,331.88
2018-07-09T07:41:15.905Z,343.12
2018-07-09T07:42:15.893Z,343.12
2018-07-09T07:43:15.887Z,365.62
2018-07-09T07:44:15.915Z,399.38
2018-07-09T07:45:15.889Z,427.50
2018-07-09T07:46:15.883Z,444.38
2018-07-09T07:47:15.837Z,461.25
2018-07-09T07:48:15.836Z,495.00
2018-07-09T07:49:15.824Z,579.38
2018-07-09T07:50:15.906Z,708.75
2018-07-09T07:51:15.802Z,894.38
2018-07-09T07:52:15.792Z,1001.25
2018-07-09T07:53:15.785Z,1018.12
2018-07-09T07:54:15.800Z,961.88
2018-07-09T07:55:15.769Z,933.75
2018-07-09T07:56:15.744Z,945.00
2018-07-09T07:57:15.747Z,950.62
2018-07-09T07:58:15.724Z,922.50
2018-07-09T07:59:15.716Z,871.88
2018-07-09T08:00:15.700Z,871.88
2018-07-09T08:01:15.698Z,911.25
2018-07-09T08:02:15.675Z,956.25
2018-07-09T08:03:15.684Z,1023.75
2018-07-09T08:04:15.703Z,1080.00
2018-07-09T08:05:15.648Z,1074.38
2018-07-09T08:06:15.662Z,1051.88
2018-07-09T08:07:15.667Z,1102.50
2018-07-09T08:08:15.622Z,1192.50
2018-07-09T08:09:15.706Z,1220.62
2018-07-09T08:10:15.735Z,1203.75
2018-07-09T08:11:15.582Z,1175.62
2018-07-09T08:13:00.546Z,1181.25
2018-07-09T08:13:27.989Z,1175.62
2018-07-09T08:14:15.608Z,1226.25
2018-07-09T08:15:15.583Z,1276.88
2018-07-09T08:16:15.531Z,1563.75
2018-07-09T08:17:15.525Z,1530.00
2018-07-09T08:18:15.513Z,1355.62
2018-07-09T08:19:15.516Z,1411.88
2018-07-09T08:20:15.492Z,1434.38
2018-07-09T08:21:15.476Z,2047.50
2018-07-09T08:22:15.473Z,1338.75
2018-07-09T08:23:15.458Z,1541.25
2018-07-09T08:24:15.445Z,1417.50
2018-07-09T08:25:15.441Z,1822.50
2018-07-09T08:26:15.425Z,1209.38
2018-07-09T08:27:15.432Z,1231.88
2018-07-09T08:28:15.831Z,1260.00
2018-07-09T08:29:15.408Z,1456.88
2018-07-09T08:30:15.417Z,1282.50
2018-07-09T08:31:15.539Z,1423.12
2018-07-09T08:32:15.360Z,967.50
2018-07-09T08:33:15.361Z,1648.12
2018-07-09T08:34:15.338Z,1653.75
2018-07-09T08:35:15.348Z,1411.88
2018-07-09T08:36:15.355Z,815.62
2018-07-09T08:37:15.308Z,646.88
2018-07-09T08:38:15.324Z,866.25
2018-07-09T08:39:15.282Z,793.12
2018-07-09T08:40:15.275Z,810.00
2018-07-09T08:41:15.269Z,781.88
2018-07-09T08:42:15.267Z,1006.88
2018-07-09T08:43:15.252Z,911.25
2018-07-09T08:44:15.237Z,990.00
2018-07-09T08:45:15.229Z,939.38
2018-07-09T08:46:15.223Z,860.62
2018-07-09T08:47:15.247Z,787.50
2018-07-09T08:48:15.198Z,770.62
2018-07-09T08:49:15.185Z,888.75
2018-07-09T08:50:15.190Z,1068.75
2018-07-09T08:51:15.208Z,1231.88
2018-07-09T08:52:15.156Z,1271.25
2018-07-09T08:53:15.291Z,1248.75
2018-07-09T08:54:15.316Z,1248.75
2018-07-09T08:55:15.552Z,1175.62
2018-07-09T08:56:15.707Z,1125.00
2018-07-09T08:57:15.505Z,1023.75
2018-07-09T08:58:15.406Z,916.88
2018-07-09T08:59:15.579Z,950.62
2018-07-09T09:00:15.710Z,900.00
2018-07-09T09:01:15.485Z,776.25
2018-07-09T09:02:15.486Z,641.25
2018-07-09T09:03:15.484Z,663.75
2018-07-09T09:04:15.636Z,613.12
2018-07-09T09:05:15.724Z,590.62
2018-07-09T09:06:16.603Z,646.88
2018-07-09T09:07:15.204Z,703.12
2018-07-09T09:08:15.156Z,720.00
2018-07-09T09:09:15.160Z,826.88
2018-07-09T09:10:15.185Z,967.50
2018-07-09T09:11:15.128Z,1552.50
2018-07-09T09:12:15.172Z,2739.38
2018-07-09T09:13:15.131Z,3611.25
2018-07-09T09:14:15.118Z,3223.12
2018-07-09T09:15:15.107Z,2683.12
2018-07-09T09:16:15.135Z,2278.12
2018-07-09T09:17:15.158Z,2047.50
2018-07-09T09:18:15.303Z,1530.00
2018-07-09T09:19:15.121Z,3088.12
2018-07-09T09:20:14.870Z,3566.25
2018-07-09T09:21:14.867Z,3701.25
2018-07-09T09:22:14.886Z,3526.88
2018-07-09T09:23:14.833Z,3183.75
2018-07-09T09:24:14.826Z,2908.12
2018-07-09T09:25:14.815Z,2851.88
2018-07-09T09:26:14.868Z,2745.00
2018-07-09T09:27:14.802Z,3318.75
2018-07-09T09:28:14.792Z,3414.38
2018-07-09T09:29:14.787Z,2306.25
2018-07-09T09:30:14.764Z,3071.25
2018-07-09T09:31:14.841Z,2964.38
2018-07-09T09:32:14.758Z,2711.25
2018-07-09T09:33:14.755Z,2424.38
2018-07-09T09:34:14.734Z,2255.62
2018-07-09T09:35:14.736Z,3273.75
2018-07-09T09:36:14.801Z,2154.38
2018-07-09T09:37:14.700Z,2019.38
2018-07-09T09:38:14.687Z,1186.88
2018-07-09T09:39:14.686Z,1186.88
2018-07-09T09:40:14.711Z,1254.38
2018-07-09T09:41:14.716Z,1096.88
2018-07-09T09:42:14.717Z,781.88
2018-07-09T09:43:14.785Z,562.50
2018-07-09T09:44:14.667Z,540.00
2018-07-09T09:45:14.642Z,506.25
2018-07-09T09:46:14.622Z,500.62
2018-07-09T09:47:14.622Z,466.88
2018-07-09T09:48:14.591Z,500.62
2018-07-09T09:49:14.595Z,596.25
2018-07-09T09:50:14.567Z,590.62
2018-07-09T09:51:14.564Z,545.62
2018-07-09T09:52:14.550Z,579.38
2018-07-09T09:53:14.562Z,646.88
2018-07-09T09:54:14.531Z,551.25
2018-07-09T09:55:14.517Z,511.88
2018-07-09T09:56:14.516Z,624.38
2018-07-09T09:57:14.508Z,821.25
2018-07-09T09:58:14.495Z,995.62
2018-07-09T09:59:14.480Z,1023.75
2018-07-09T10:00:14.475Z,956.25
2018-07-09T10:01:14.478Z,731.25
2018-07-09T10:02:14.445Z,686.25
2018-07-09T10:03:14.442Z,703.12
2018-07-09T10:04:14.431Z,776.25
2018-07-09T10:05:14.414Z,686.25
2018-07-09T10:06:14.416Z,635.62
2018-07-09T10:07:14.390Z,641.25
2018-07-09T10:08:14.391Z,618.75
2018-07-09T10:09:14.388Z,624.38
2018-07-09T10:10:14.359Z,630.00
2018-07-09T10:11:14.355Z,658.12
2018-07-09T10:12:14.342Z,759.38
2018-07-09T10:13:14.334Z,838.12
2018-07-09T10:14:14.323Z,1012.50
2018-07-09T10:15:14.331Z,1012.50
2018-07-09T10:16:14.303Z,956.25
2018-07-09T10:17:14.290Z,967.50
2018-07-09T10:18:14.285Z,1040.62
2018-07-09T10:19:14.272Z,1141.88
2018-07-09T10:20:14.258Z,1130.62
2018-07-09T10:21:14.253Z,1175.62
2018-07-09T10:22:14.233Z,1288.12
2018-07-09T10:23:14.350Z,1327.50
2018-07-09T10:24:14.240Z,1518.75
2018-07-09T10:25:14.214Z,1496.25
2018-07-09T10:26:14.202Z,1575.00
2018-07-09T10:27:14.181Z,1620.00
2018-07-09T10:28:14.189Z,1603.12
2018-07-09T10:29:14.168Z,1524.38
2018-07-09T10:30:14.149Z,1434.38
2018-07-09T10:31:14.145Z,1389.38
2018-07-09T10:32:14.162Z,1423.12
2018-07-09T10:33:14.144Z,1490.62
2018-07-09T10:34:14.157Z,1867.50
2018-07-09T10:35:14.105Z,1940.62
2018-07-09T10:36:14.092Z,4303.12
2018-07-09T10:37:14.090Z,4550.62
2018-07-09T10:38:14.105Z,4623.75
2018-07-09T10:39:14.064Z,4702.50
2018-07-09T10:40:14.051Z,3706.88
2018-07-09T10:41:14.043Z,4044.38
2018-07-09T10:42:14.032Z,1783.12
2018-07-09T10:43:14.055Z,3262.50
2018-07-09T10:44:14.016Z,2598.75
2018-07-09T10:45:14.017Z,2401.88
2018-07-09T10:46:13.998Z,1715.62
2018-07-09T10:47:14.060Z,1378.12
2018-07-09T10:48:13.993Z,1316.25
2018-07-09T10:49:13.967Z,1305.00
2018-07-09T10:50:13.960Z,1333.12
2018-07-09T10:51:13.943Z,1282.50
2018-07-09T10:52:13.935Z,1254.38
2018-07-09T10:53:13.928Z,1282.50
2018-07-09T10:54:13.914Z,1215.00
2018-07-09T10:55:13.970Z,1203.75
2018-07-09T10:56:13.914Z,1226.25
2018-07-09T10:57:13.923Z,1316.25
2018-07-09T10:58:13.910Z,1513.12
2018-07-09T10:59:13.862Z,1676.25
2018-07-09T11:00:13.859Z,1738.12
2018-07-09T11:01:13.887Z,1912.50
2018-07-09T11:02:13.833Z,2041.88
2018-07-09T11:03:13.850Z,2008.12
2018-07-09T11:04:13.823Z,1760.62
2018-07-09T11:05:13.819Z,1248.75
2018-07-09T11:06:13.796Z,916.88
2018-07-09T11:07:13.791Z,804.38
2018-07-09T11:08:13.803Z,725.62
2018-07-09T11:09:13.767Z,736.88
2018-07-09T11:10:13.760Z,877.50
2018-07-09T11:11:13.741Z,1119.38
2018-07-09T11:12:13.735Z,1282.50
2018-07-09T11:13:13.728Z,1316.25
2018-07-09T11:14:13.732Z,1288.12
2018-07-09T11:15:13.709Z,1299.38
2018-07-09T11:16:13.706Z,1383.75
2018-07-09T11:17:13.686Z,1423.12
2018-07-09T11:18:13.682Z,1400.62
2018-07-09T11:19:13.696Z,1389.38
2018-07-09T11:20:13.696Z,1395.00
2018-07-09T11:21:13.646Z,1468.12
2018-07-09T11:22:13.660Z,1293.75
2018-07-09T11:23:13.625Z,1209.38
2018-07-09T11:24:13.659Z,1125.00
2018-07-09T11:25:13.631Z,1001.25
2018-07-09T11:26:13.589Z,855.00
2018-07-09T11:27:13.594Z,720.00
2018-07-09T11:28:13.572Z,680.62
2018-07-09T11:29:13.573Z,708.75
2018-07-09T11:30:13.556Z,798.75
2018-07-09T11:31:13.569Z,905.62
2018-07-09T11:32:13.531Z,1057.50
2018-07-09T11:33:13.519Z,1276.88
2018-07-09T11:34:13.507Z,1518.75
2018-07-09T11:35:13.512Z,1811.25
2018-07-09T11:36:13.491Z,2081.25
2018-07-09T11:37:13.480Z,2418.75
2018-07-09T11:38:13.466Z,2469.38
2018-07-09T11:39:13.462Z,1833.75
2018-07-09T11:40:13.475Z,1636.88
2018-07-09T11:41:13.440Z,1771.88
2018-07-09T11:42:13.450Z,1963.12
2018-07-09T11:43:13.415Z,2182.50
2018-07-09T11:44:13.407Z,2379.38
2018-07-09T11:45:13.394Z,1940.62
2018-07-09T11:46:13.402Z,1676.25
2018-07-09T11:47:13.422Z,1507.50
2018-07-09T11:48:13.372Z,1406.25
2018-07-09T11:49:13.360Z,1355.62
2018-07-09T11:50:13.351Z,1265.62
2018-07-09T11:51:13.348Z,1080.00
2018-07-09T11:52:13.399Z,939.38
2018-07-09T11:53:13.321Z,956.25
2018-07-09T11:54:13.309Z,1080.00
2018-07-09T11:55:13.297Z,1181.25
2018-07-09T11:56:13.286Z,1209.38
2018-07-09T11:57:13.275Z,1153.12
2018-07-09T11:58:13.278Z,1068.75
2018-07-09T11:59:13.257Z,961.88
2018-07-09T12:00:13.261Z,860.62
2018-07-09T12:01:13.242Z,759.38
2018-07-09T12:02:13.232Z,618.75
2018-07-09T12:03:13.223Z,500.62
2018-07-09T12:04:13.204Z,421.88
2018-07-09T12:05:13.195Z,382.50
2018-07-09T12:06:13.210Z,365.62
2018-07-09T12:07:13.187Z,371.25
2018-07-09T12:08:13.186Z,382.50
2018-07-09T12:09:13.164Z,382.50
2018-07-09T12:10:13.182Z,371.25
2018-07-09T12:11:13.137Z,388.12
2018-07-09T12:12:13.125Z,416.25
2018-07-09T12:13:13.114Z,472.50
2018-07-09T12:14:13.104Z,596.25
2018-07-09T12:15:13.090Z,765.00
2018-07-09T12:16:13.096Z,905.62
2018-07-09T12:17:13.072Z,1006.88
2018-07-09T12:18:13.062Z,1051.88
2018-07-09T12:19:13.051Z,1085.62
2018-07-09T12:20:13.043Z,1085.62
2018-07-09T12:21:13.057Z,1063.12
2018-07-09T12:22:13.018Z,1057.50
2018-07-09T12:23:13.006Z,1057.50
2018-07-09T12:24:12.996Z,1029.38
2018-07-09T12:25:12.999Z,995.62
2018-07-09T12:26:12.978Z,928.12
2018-07-09T12:27:12.976Z,855.00
2018-07-09T12:28:12.950Z,793.12
2018-07-09T12:29:13.044Z,759.38
2018-07-09T12:30:12.951Z,725.62
2018-07-09T12:31:12.929Z,691.88
2018-07-09T12:32:12.916Z,680.62
2018-07-09T12:33:12.937Z,703.12
2018-07-09T12:34:12.895Z,736.88
2018-07-09T12:35:12.878Z,770.62
2018-07-09T12:36:12.953Z,832.50
2018-07-09T12:37:12.907Z,866.25